Skip to main content.
Station Historical Data
 
Daily Summary for February 26, 2020 Units:  Both    English   Metric
« Previous Day
Next Day »
Daily Weekly Monthly Yearly Custom
  Current: High: Low: Average:
Temperature: 23.4 °F /  -4.8 °C 28.8 °F /  -1.8 °C 23.4 °F /  -4.8 °C 26.1 °F /  -3.3 °C
Dew Point: 19.2 °F /  -7.1 °C 23.2 °F /  -4.9 °C 19.2 °F /  -7.1 °C 21.2 °F /  -6 °C
Humidity: 84% 86% 78% 82%
Wind Speed: 10.5mph /  16.9km/h 20.9mph /  33.6km/h - 16.5mph /  26.5km/h
Wind Gust: 12.7mph /  20.4km/h 28mph /  45.1km/h - -
WindNNW - - NW
Pressure: 30.4 in /  1029.1 hPa 30.4 in /  1029.4 hPa 30.4 in /  1028.8 hPa -
Precipitation: 0 in /  0.0 mm      
Historical Graphs
 
 
Tabular Data for February 26, 2020
Time Temperature Dew Point Pressure Wind Wind Speed Wind Gust Humidity Rainfall Rate (Hourly) solar Conditions
00:00 28.8 °F /  -1.8 °C 23.2 °F /  -4.9 °C 30.4in /  1028.8hPa North 19.2mph /  30.9km/h 26.5mph /  42.6km/h 79% 0in /  0.0mm 0.00 W/m2 OVC
00:05 28.8 °F /  -1.8 °C 22.6 °F /  -5.2 °C 30.4in /  1028.9hPa North 18.5mph /  29.8km/h 23mph /  37.0km/h 78% 0in /  0.0mm 0.00 W/m2 OVC
00:10 28.6 °F /  -1.9 °C 22.8 °F /  -5.1 °C 30.4in /  1028.9hPa North 20.9mph /  33.6km/h 26.5mph /  42.6km/h 79% 0in /  0.0mm 0.00 W/m2 OVC
00:15 28.6 °F /  -1.9 °C 22.8 °F /  -5.1 °C 30.4in /  1028.9hPa NNW 20.8mph /  33.5km/h 26.5mph /  42.6km/h 79% 0in /  0.0mm 0.00 W/m2 OVC
00:20 28.4 °F /  -2.0 °C 22.6 °F /  -5.2 °C 30.4in /  1028.9hPa North 20mph /  32.2km/h 28mph /  45.1km/h 79% 0in /  0.0mm 0.00 W/m2 OVC
00:25 28.2 °F /  -2.1 °C 22.6 °F /  -5.2 °C 30.4in /  1029.0hPa NNW 19.7mph /  31.7km/h 26.5mph /  42.6km/h 79% 0in /  0.0mm 0.00 W/m2 OVC
00:30 28.2 °F /  -2.1 °C 22.6 °F /  -5.2 °C 30.4in /  1029.0hPa North 18mph /  29.0km/h 23mph /  37.0km/h 79% 0in /  0.0mm 0.00 W/m2 OVC
00:35 28.2 °F /  -2.1 °C 22.6 °F /  -5.2 °C 30.4in /  1029.1hPa North 16.2mph /  26.1km/h 21.9mph /  35.2km/h 79% 0in /  0.0mm 0.00 W/m2 OVC
00:40 28.2 °F /  -2.1 °C 22.8 °F /  -5.1 °C 30.4in /  1029.1hPa NNW 18.7mph /  30.1km/h 23mph /  37.0km/h 80% 0in /  0.0mm 0.00 W/m2 OVC
00:45 28 °F /  -2.2 °C 22.6 °F /  -5.2 °C 30.4in /  1029.1hPa North 17.1mph /  27.5km/h 24.2mph /  38.9km/h 80% 0in /  0.0mm 0.00 W/m2 OVC
00:50 28 °F /  -2.2 °C 22.6 °F /  -5.2 °C 30.4in /  1029.1hPa North 16.5mph /  26.5km/h 24.2mph /  38.9km/h 80% 0in /  0.0mm 0.00 W/m2 OVC
00:55 28 °F /  -2.2 °C 22.6 °F /  -5.2 °C 30.4in /  1029.3hPa North 16.7mph /  26.9km/h 25.3mph /  40.7km/h 80% 0in /  0.0mm 0.00 W/m2 OVC
01:00 27.9 °F /  -2.3 °C 22.5 °F /  -5.3 °C 30.4in /  1029.2hPa NNW 20.1mph /  32.3km/h 26.5mph /  42.6km/h 80% 0in /  0.0mm 0.00 W/m2 OVC
01:05 28 °F /  -2.2 °C 22.6 °F /  -5.2 °C 30.4in /  1029.3hPa North 18.7mph /  30.1km/h 24.2mph /  38.9km/h 80% 0in /  0.0mm 0.00 W/m2 OVC
01:10 27.9 °F /  -2.3 °C 22.5 °F /  -5.3 °C 30.4in /  1029.3hPa North 16.3mph /  26.2km/h 21.9mph /  35.2km/h 80% 0in /  0.0mm 0.00 W/m2 OVC
01:15 27.7 °F /  -2.4 °C 22.3 °F /  -5.4 °C 30.4in /  1029.3hPa North 20.3mph /  32.7km/h 24.2mph /  38.9km/h 80% 0in /  0.0mm 0.00 W/m2 OVC
01:20 27.5 °F /  -2.5 °C 22.5 °F /  -5.3 °C 30.4in /  1029.3hPa NNW 18.3mph /  29.4km/h 24.2mph /  38.9km/h 81% 0in /  0.0mm 0.00 W/m2 OVC
01:25 27.3 °F /  -2.6 °C 21.9 °F /  -5.6 °C 30.4in /  1029.3hPa North 18mph /  29.0km/h 23mph /  37.0km/h 80% 0in /  0.0mm 0.00 W/m2 OVC
01:30 27.3 °F /  -2.6 °C 21.9 °F /  -5.6 °C 30.4in /  1029.3hPa North 20.5mph /  33.0km/h 27mph /  43.4km/h 80% 0in /  0.0mm 0.00 W/m2 OVC
01:35 27.1 °F /  -2.7 °C 21.6 °F /  -5.8 °C 30.4in /  1029.3hPa North 14.9mph /  24.0km/h 21.9mph /  35.2km/h 79% 0in /  0.0mm 0.00 W/m2 OVC
01:40 27.1 °F /  -2.7 °C 21.6 °F /  -5.8 °C 30.4in /  1029.4hPa North 19.9mph /  32.0km/h 23mph /  37.0km/h 79% 0in /  0.0mm 0.00 W/m2 OVC
01:45 27.1 °F /  -2.7 °C 21.6 °F /  -5.8 °C 30.4in /  1029.4hPa North 13.9mph /  22.4km/h 21mph /  33.8km/h 79% 0in /  0.0mm 0.00 W/m2 OVC
01:50 27 °F /  -2.8 °C 21.9 °F /  -5.6 °C 30.4in /  1029.4hPa NNW 18.2mph /  29.3km/h 24mph /  38.6km/h 81% 0in /  0.0mm 0.00 W/m2 OVC
01:55 27 °F /  -2.8 °C 21.7 °F /  -5.7 °C 30.4in /  1029.4hPa North 16.9mph /  27.2km/h 20.7mph /  33.3km/h 81% 0in /  0.0mm 0.00 W/m2 OVC
02:00 26.8 °F /  -2.9 °C 21.7 °F /  -5.7 °C 30.4in /  1029.3hPa North 17.9mph /  28.8km/h 20.7mph /  33.3km/h 81% 0in /  0.0mm 0.00 W/m2 OVC
02:05 26.8 °F /  -2.9 °C 21.7 °F /  -5.7 °C 30.4in /  1029.2hPa NNW 15.9mph /  25.6km/h 20.7mph /  33.3km/h 81% 0in /  0.0mm 0.00 W/m2 OVC
02:10 26.8 °F /  -2.9 °C 21.7 °F /  -5.7 °C 30.4in /  1029.2hPa NNW 17.2mph /  27.7km/h 23mph /  37.0km/h 81% 0in /  0.0mm 0.00 W/m2 OVC
02:15 26.6 °F /  -3.0 °C 21.6 °F /  -5.8 °C 30.4in /  1029.2hPa North 16.2mph /  26.1km/h 19.6mph /  31.5km/h 81% 0in /  0.0mm 0.00 W/m2 OVC
02:20 26.4 °F /  -3.1 °C 21.4 °F /  -5.9 °C 30.4in /  1029.3hPa North 16.8mph /  27.0km/h 24mph /  38.6km/h 81% 0in /  0.0mm 0.00 W/m2 OVC
02:25 26.2 °F /  -3.2 °C 21.2 °F /  -6.0 °C 30.4in /  1029.3hPa NNW 16.2mph /  26.1km/h 20.7mph /  33.3km/h 81% 0in /  0.0mm 0.00 W/m2 OVC
02:30 26.1 °F /  -3.3 °C 21.4 °F /  -5.9 °C 30.4in /  1029.3hPa NNW 17.2mph /  27.7km/h 21.9mph /  35.2km/h 82% 0in /  0.0mm 0.00 W/m2 OVC
02:35 26.1 °F /  -3.3 °C 21.4 °F /  -5.9 °C 30.4in /  1029.2hPa NNW 16.7mph /  26.9km/h 24.2mph /  38.9km/h 82% 0in /  0.0mm 0.00 W/m2 OVC
02:40 25.9 °F /  -3.4 °C 21.2 °F /  -6.0 °C 30.4in /  1029.2hPa NNW 19.5mph /  31.4km/h 24.2mph /  38.9km/h 82% 0in /  0.0mm 0.00 W/m2 OVC
02:45 25.7 °F /  -3.5 °C 21 °F /  -6.1 °C 30.4in /  1029.2hPa North 17.8mph /  28.6km/h 22mph /  35.4km/h 82% 0in /  0.0mm 0.00 W/m2 OVC
02:50 25.5 °F /  -3.6 °C 20.8 °F /  -6.2 °C 30.4in /  1029.0hPa North 18.2mph /  29.3km/h 23mph /  37.0km/h 82% 0in /  0.0mm 0.00 W/m2 OVC
02:55 25.3 °F /  -3.7 °C 20.7 °F /  -6.3 °C 30.4in /  1029.0hPa NNW 19.7mph /  31.7km/h 25.3mph /  40.7km/h 82% 0in /  0.0mm 0.00 W/m2 OVC
03:00 25.3 °F /  -3.7 °C 20.7 °F /  -6.3 °C 30.4in /  1029.1hPa NNW 17.5mph /  28.2km/h 21.9mph /  35.2km/h 82% 0in /  0.0mm 0.00 W/m2 OVC
03:05 25.2 °F /  -3.8 °C 20.5 °F /  -6.4 °C 30.4in /  1029.0hPa North 18.5mph /  29.8km/h 23mph /  37.0km/h 82% 0in /  0.0mm 0.00 W/m2 OVC
03:10 25.2 °F /  -3.8 °C 20.5 °F /  -6.4 °C 30.4in /  1029.0hPa North 13.2mph /  21.2km/h 19.6mph /  31.5km/h 82% 0in /  0.0mm 0.00 W/m2 OVC
03:15 25 °F /  -3.9 °C 20.7 °F /  -6.3 °C 30.4in /  1029.0hPa North 18mph /  29.0km/h 19.6mph /  31.5km/h 83% 0in /  0.0mm 0.00 W/m2 OVC
03:20 25 °F /  -3.9 °C 20.5 °F /  -6.4 °C 30.4in /  1029.0hPa North 18.1mph /  29.1km/h 23mph /  37.0km/h 83% 0in /  0.0mm 0.00 W/m2 OVC
03:25 25 °F /  -3.9 °C 20.5 °F /  -6.4 °C 30.4in /  1029.0hPa North 14.8mph /  23.8km/h 19.6mph /  31.5km/h 83% 0in /  0.0mm 0.00 W/m2 OVC
03:30 25 °F /  -3.9 °C 20.5 °F /  -6.4 °C 30.4in /  1028.9hPa NNW 14.4mph /  23.2km/h 19.6mph /  31.5km/h 83% 0in /  0.0mm 0.00 W/m2 OVC
03:35 24.8 °F /  -4.0 °C 20.5 °F /  -6.4 °C 30.4in /  1028.9hPa NNW 17.8mph /  28.6km/h 21.9mph /  35.2km/h 83% 0in /  0.0mm 0.00 W/m2 OVC
03:40 24.4 °F /  -4.2 °C 20.1 °F /  -6.6 °C 30.4in /  1029.0hPa North 16.6mph /  26.7km/h 19.6mph /  31.5km/h 83% 0in /  0.0mm 0.00 W/m2 OVC
03:45 24.3 °F /  -4.3 °C 19.9 °F /  -6.7 °C 30.4in /  1029.1hPa NNW 14.3mph /  23.0km/h 19.6mph /  31.5km/h 83% 0in /  0.0mm 0.00 W/m2 OVC
03:50 24.1 °F /  -4.4 °C 19.6 °F /  -6.9 °C 30.4in /  1029.0hPa NNW 12.1mph /  19.5km/h 17.3mph /  27.8km/h 83% 0in /  0.0mm 0.00 W/m2 OVC
03:55 23.7 °F /  -4.6 °C 19.8 °F /  -6.8 °C 30.4in /  1028.9hPa NNW 13mph /  20.9km/h 17.3mph /  27.8km/h 84% 0in /  0.0mm 0.00 W/m2 OVC
04:00 23.7 °F /  -4.6 °C 19.6 °F /  -6.9 °C 30.4in /  1028.9hPa North 13.2mph /  21.2km/h 16.1mph /  25.9km/h 84% 0in /  0.0mm 0.00 W/m2 OVC
04:05 23.7 °F /  -4.6 °C 19.9 °F /  -6.7 °C 30.4in /  1029.0hPa NNW 11.8mph /  19.0km/h 19.6mph /  31.5km/h 85% 0in /  0.0mm 0.00 W/m2 OVC
04:10 23.7 °F /  -4.6 °C 19.9 °F /  -6.7 °C 30.4in /  1029.0hPa NW 10.3mph /  16.6km/h 11.5mph /  18.5km/h 85% 0in /  0.0mm 0.00 W/m2 OVC
04:15 23.7 °F /  -4.6 °C 19.9 °F /  -6.7 °C 30.4in /  1029.1hPa NNW 9.9mph /  15.9km/h 13mph /  20.9km/h 85% 0in /  0.0mm 0.00 W/m2 OVC
04:20 23.5 °F /  -4.7 °C 19.8 °F /  -6.8 °C 30.4in /  1029.1hPa NNW 12.1mph /  19.5km/h 15mph /  24.1km/h 85% 0in /  0.0mm 0.00 W/m2 OVC
04:25 23.5 °F /  -4.7 °C 19.9 °F /  -6.7 °C 30.4in /  1029.1hPa North 12.4mph /  20.0km/h 15mph /  24.1km/h 86% 0in /  0.0mm 0.00 W/m2 OVC
04:30 23.5 °F /  -4.7 °C 19.8 °F /  -6.8 °C 30.4in /  1029.1hPa NNW 11.7mph /  18.8km/h 17.3mph /  27.8km/h 85% 0in /  0.0mm 0.00 W/m2 OVC
04:35 23.5 °F /  -4.7 °C 19.8 °F /  -6.8 °C 30.4in /  1029.1hPa NNW 13.9mph /  22.4km/h 18.4mph /  29.6km/h 85% 0in /  0.0mm 0.00 W/m2 OVC
04:40 23.4 °F /  -4.8 °C 19.6 °F /  -6.9 °C 30.4in /  1029.1hPa NNW 14.2mph /  22.8km/h 17.3mph /  27.8km/h 85% 0in /  0.0mm 0.00 W/m2 OVC
04:45 23.4 °F /  -4.8 °C 19.2 °F /  -7.1 °C 30.4in /  1029.1hPa NNW 10.5mph /  16.9km/h 12.7mph /  20.4km/h 84% 0in /  0.0mm 0.00 W/m2 OVC
Friend Weather